sensor_id;sensor_type;location;lat;lon;timestamp;temperature;humidity
21811;DHT22;11067;48.788;9.208;2023-08-31T00:01:31;14.90;99.90
21811;DHT22;11067;48.788;9.208;2023-08-31T00:04:01;14.80;99.90
21811;DHT22;11067;48.788;9.208;2023-08-31T00:06:28;14.90;99.90
21811;DHT22;11067;48.788;9.208;2023-08-31T00:08:53;14.80;99.90
21811;DHT22;11067;48.788;9.208;2023-08-31T00:11:19;14.80;99.90
21811;DHT22;11067;48.788;9.208;2023-08-31T00:13:45;14.80;99.90
21811;DHT22;11067;48.788;9.208;2023-08-31T00:16:10;14.80;99.90
21811;DHT22;11067;48.788;9.208;2023-08-31T00:18:37;14.80;99.90
21811;DHT22;11067;48.788;9.208;2023-08-31T00:21:04;14.80;99.90
21811;DHT22;11067;48.788;9.208;2023-08-31T00:23:29;14.80;99.90
21811;DHT22;11067;48.788;9.208;2023-08-31T00:25:55;14.70;99.90
21811;DHT22;11067;48.788;9.208;2023-08-31T00:28:22;14.70;99.90
21811;DHT22;11067;48.788;9.208;2023-08-31T00:30:48;14.60;99.90
21811;DHT22;11067;48.788;9.208;2023-08-31T00:33:15;14.60;99.90
21811;DHT22;11067;48.788;9.208;2023-08-31T00:35:41;14.60;99.90
21811;DHT22;11067;48.788;9.208;2023-08-31T00:38:12;14.50;99.90
21811;DHT22;11067;48.788;9.208;2023-08-31T00:40:41;14.50;99.90
21811;DHT22;11067;48.788;9.208;2023-08-31T00:43:10;14.50;99.90
21811;DHT22;11067;48.788;9.208;2023-08-31T00:45:37;14.50;99.90
21811;DHT22;11067;48.788;9.208;2023-08-31T00:48:04;14.50;99.90
21811;DHT22;11067;48.788;9.208;2023-08-31T00:50:30;14.40;99.90
21811;DHT22;11067;48.788;9.208;2023-08-31T00:52:56;14.40;99.90
21811;DHT22;11067;48.788;9.208;2023-08-31T00:55:22;14.40;99.90
21811;DHT22;11067;48.788;9.208;2023-08-31T00:57:48;14.30;99.90
21811;DHT22;11067;48.788;9.208;2023-08-31T01:00:14;14.30;99.90
21811;DHT22;11067;48.788;9.208;2023-08-31T01:02:59;14.30;99.90
21811;DHT22;11067;48.788;9.208;2023-08-31T01:05:39;14.30;99.90
21811;DHT22;11067;48.788;9.208;2023-08-31T01:08:24;14.20;99.90
21811;DHT22;11067;48.788;9.208;2023-08-31T01:11:04;14.20;99.90
21811;DHT22;11067;48.788;9.208;2023-08-31T01:13:32;14.30;99.90
21811;DHT22;11067;48.788;9.208;2023-08-31T01:16:03;14.20;99.90
21811;DHT22;11067;48.788;9.208;2023-08-31T01:18:31;14.10;99.90
21811;DHT22;11067;48.788;9.208;2023-08-31T01:21:05;14.10;99.90
21811;DHT22;11067;48.788;9.208;2023-08-31T01:23:53;14.00;99.90
21811;DHT22;11067;48.788;9.208;2023-08-31T01:26:20;14.10;99.90
21811;DHT22;11067;48.788;9.208;2023-08-31T01:28:47;14.00;99.90
21811;DHT22;11067;48.788;9.208;2023-08-31T01:31:13;14.00;99.90
21811;DHT22;11067;48.788;9.208;2023-08-31T01:33:39;14.00;99.90
21811;DHT22;11067;48.788;9.208;2023-08-31T01:36:12;14.00;99.90
21811;DHT22;11067;48.788;9.208;2023-08-31T01:38:41;14.00;99.90
21811;DHT22;11067;48.788;9.208;2023-08-31T01:41:11;14.00;99.90
21811;DHT22;11067;48.788;9.208;2023-08-31T01:43:40;13.90;99.90
21811;DHT22;11067;48.788;9.208;2023-08-31T01:46:07;13.90;99.90
21811;DHT22;11067;48.788;9.208;2023-08-31T01:48:38;13.90;99.90
21811;DHT22;11067;48.788;9.208;2023-08-31T01:51:04;13.80;99.90
21811;DHT22;11067;48.788;9.208;2023-08-31T01:53:31;13.80;99.90
21811;DHT22;11067;48.788;9.208;2023-08-31T01:55:56;13.90;99.90
21811;DHT22;11067;48.788;9.208;2023-08-31T01:58:22;13.90;99.90
21811;DHT22;11067;48.788;9.208;2023-08-31T02:00:48;13.90;99.90
21811;DHT22;11067;48.788;9.208;2023-08-31T02:03:13;13.90;99.90
21811;DHT22;11067;48.788;9.208;2023-08-31T02:05:39;14.00;99.90
21811;DHT22;11067;48.788;9.208;2023-08-31T02:08:05;14.00;99.90
21811;DHT22;11067;48.788;9.208;2023-08-31T02:10:30;14.00;99.90
21811;DHT22;11067;48.788;9.208;2023-08-31T02:12:56;14.00;99.90
21811;DHT22;11067;48.788;9.208;2023-08-31T02:15:22;13.90;99.90
21811;DHT22;11067;48.788;9.208;2023-08-31T02:17:47;14.00;99.90
21811;DHT22;11067;48.788;9.208;2023-08-31T02:20:13;14.00;99.90
21811;DHT22;11067;48.788;9.208;2023-08-31T02:22:39;14.00;99.90
21811;DHT22;11067;48.788;9.208;2023-08-31T02:25:05;14.10;99.90
21811;DHT22;11067;48.788;9.208;2023-08-31T02:27:31;14.10;99.90
21811;DHT22;11067;48.788;9.208;2023-08-31T02:29:57;14.10;99.90
21811;DHT22;11067;48.788;9.208;2023-08-31T02:32:23;14.10;99.90
21811;DHT22;11067;48.788;9.208;2023-08-31T02:34:49;14.10;99.90
21811;DHT22;11067;48.788;9.208;2023-08-31T02:37:14;14.20;99.90
21811;DHT22;11067;48.788;9.208;2023-08-31T02:39:40;14.10;99.90
21811;DHT22;11067;48.788;9.208;2023-08-31T02:42:05;14.10;99.90
21811;DHT22;11067;48.788;9.208;2023-08-31T02:44:31;14.10;99.90
21811;DHT22;11067;48.788;9.208;2023-08-31T02:46:57;14.20;99.90
21811;DHT22;11067;48.788;9.208;2023-08-31T02:49:23;14.20;99.90
21811;DHT22;11067;48.788;9.208;2023-08-31T02:51:48;14.10;99.90
21811;DHT22;11067;48.788;9.208;2023-08-31T02:54:15;14.20;99.90
21811;DHT22;11067;48.788;9.208;2023-08-31T02:56:40;14.20;99.90
21811;DHT22;11067;48.788;9.208;2023-08-31T02:59:06;14.20;99.90
21811;DHT22;11067;48.788;9.208;2023-08-31T03:01:32;14.20;99.90
21811;DHT22;11067;48.788;9.208;2023-08-31T03:04:21;14.20;99.90
21811;DHT22;11067;48.788;9.208;2023-08-31T03:06:47;14.20;99.90
21811;DHT22;11067;48.788;9.208;2023-08-31T03:09:12;14.10;99.90
21811;DHT22;11067;48.788;9.208;2023-08-31T03:11:38;14.10;99.90
21811;DHT22;11067;48.788;9.208;2023-08-31T03:14:04;14.00;99.90
21811;DHT22;11067;48.788;9.208;2023-08-31T03:16:30;14.00;99.90
21811;DHT22;11067;48.788;9.208;2023-08-31T03:18:55;14.10;99.90
21811;DHT22;11067;48.788;9.208;2023-08-31T03:21:21;14.00;99.90
21811;DHT22;11067;48.788;9.208;2023-08-31T03:23:46;14.00;99.90
21811;DHT22;11067;48.788;9.208;2023-08-31T03:26:12;14.00;99.90
21811;DHT22;11067;48.788;9.208;2023-08-31T03:28:38;13.90;99.90
21811;DHT22;11067;48.788;9.208;2023-08-31T03:31:05;13.90;99.90
21811;DHT22;11067;48.788;9.208;2023-08-31T03:33:31;13.90;99.90
21811;DHT22;11067;48.788;9.208;2023-08-31T03:36:03;13.90;99.90
21811;DHT22;11067;48.788;9.208;2023-08-31T03:38:32;13.90;99.90
21811;DHT22;11067;48.788;9.208;2023-08-31T03:41:02;13.90;99.90
21811;DHT22;11067;48.788;9.208;2023-08-31T03:43:28;13.90;99.90
21811;DHT22;11067;48.788;9.208;2023-08-31T03:45:54;13.90;99.90
21811;DHT22;11067;48.788;9.208;2023-08-31T03:48:24;13.90;99.90
21811;DHT22;11067;48.788;9.208;2023-08-31T03:50:54;13.80;99.90
21811;DHT22;11067;48.788;9.208;2023-08-31T03:53:20;13.80;99.90
21811;DHT22;11067;48.788;9.208;2023-08-31T03:55:45;13.80;99.90
21811;DHT22;11067;48.788;9.208;2023-08-31T03:58:11;13.90;99.90
21811;DHT22;11067;48.788;9.208;2023-08-31T04:00:37;13.80;99.90
21811;DHT22;11067;48.788;9.208;2023-08-31T04:03:03;13.80;99.90
21811;DHT22;11067;48.788;9.208;2023-08-31T04:05:32;13.80;99.90
21811;DHT22;11067;48.788;9.208;2023-08-31T04:07:59;13.70;99.90
21811;DHT22;11067;48.788;9.208;2023-08-31T04:10:25;13.70;99.90
21811;DHT22;11067;48.788;9.208;2023-08-31T04:12:51;13.70;99.90
21811;DHT22;11067;48.788;9.208;2023-08-31T04:15:16;13.70;99.90
21811;DHT22;11067;48.788;9.208;2023-08-31T04:17:43;13.80;99.90
21811;DHT22;11067;48.788;9.208;2023-08-31T04:20:08;13.70;99.90
21811;DHT22;11067;48.788;9.208;2023-08-31T04:22:34;13.70;99.90
21811;DHT22;11067;48.788;9.208;2023-08-31T04:25:00;13.70;99.90
21811;DHT22;11067;48.788;9.208;2023-08-31T04:27:25;13.60;99.90
21811;DHT22;11067;48.788;9.208;2023-08-31T04:29:52;13.60;99.90
21811;DHT22;11067;48.788;9.208;2023-08-31T04:32:17;13.60;99.90
21811;DHT22;11067;48.788;9.208;2023-08-31T04:34:43;13.60;99.90
21811;DHT22;11067;48.788;9.208;2023-08-31T04:37:08;13.50;99.90
21811;DHT22;11067;48.788;9.208;2023-08-31T04:39:34;13.60;99.90
21811;DHT22;11067;48.788;9.208;2023-08-31T04:41:59;13.60;99.90
21811;DHT22;11067;48.788;9.208;2023-08-31T04:44:25;13.50;99.90
21811;DHT22;11067;48.788;9.208;2023-08-31T04:46:51;13.60;99.90
21811;DHT22;11067;48.788;9.208;2023-08-31T04:49:16;13.50;99.90
21811;DHT22;11067;48.788;9.208;2023-08-31T04:51:44;13.60;99.90
21811;DHT22;11067;48.788;9.208;2023-08-31T04:54:09;13.60;99.90
21811;DHT22;11067;48.788;9.208;2023-08-31T04:56:36;13.60;99.90
21811;DHT22;11067;48.788;9.208;2023-08-31T04:59:01;13.60;99.90
21811;DHT22;11067;48.788;9.208;2023-08-31T05:01:30;13.60;99.90
21811;DHT22;11067;48.788;9.208;2023-08-31T05:03:56;13.50;99.90
21811;DHT22;11067;48.788;9.208;2023-08-31T05:06:21;13.60;99.90
21811;DHT22;11067;48.788;9.208;2023-08-31T05:08:48;13.60;99.90
21811;DHT22;11067;48.788;9.208;2023-08-31T05:11:14;13.60;99.90
21811;DHT22;11067;48.788;9.208;2023-08-31T05:13:40;13.60;99.90
21811;DHT22;11067;48.788;9.208;2023-08-31T05:16:08;13.60;99.90
21811;DHT22;11067;48.788;9.208;2023-08-31T05:18:33;13.60;99.90
21811;DHT22;11067;48.788;9.208;2023-08-31T05:20:59;13.60;99.90
21811;DHT22;11067;48.788;9.208;2023-08-31T05:23:25;13.60;99.90
21811;DHT22;11067;48.788;9.208;2023-08-31T05:25:50;13.70;99.90
21811;DHT22;11067;48.788;9.208;2023-08-31T05:28:16;13.70;99.90
21811;DHT22;11067;48.788;9.208;2023-08-31T05:30:49;13.80;99.90
21811;DHT22;11067;48.788;9.208;2023-08-31T05:33:16;13.80;99.90
21811;DHT22;11067;48.788;9.208;2023-08-31T05:35:42;13.80;99.90
21811;DHT22;11067;48.788;9.208;2023-08-31T05:38:07;13.90;99.90
21811;DHT22;11067;48.788;9.208;2023-08-31T05:40:33;13.90;99.90
21811;DHT22;11067;48.788;9.208;2023-08-31T05:42:58;14.00;99.90
21811;DHT22;11067;48.788;9.208;2023-08-31T05:45:24;14.00;99.90
21811;DHT22;11067;48.788;9.208;2023-08-31T05:47:50;13.90;99.90
21811;DHT22;11067;48.788;9.208;2023-08-31T05:50:15;13.90;99.90
21811;DHT22;11067;48.788;9.208;2023-08-31T05:52:41;13.90;99.90
21811;DHT22;11067;48.788;9.208;2023-08-31T05:55:09;14.00;99.90
21811;DHT22;11067;48.788;9.208;2023-08-31T05:57:35;14.20;99.90
21811;DHT22;11067;48.788;9.208;2023-08-31T06:00:01;14.10;99.90
21811;DHT22;11067;48.788;9.208;2023-08-31T06:02:26;14.10;99.90
21811;DHT22;11067;48.788;9.208;2023-08-31T06:04:52;14.00;99.90
21811;DHT22;11067;48.788;9.208;2023-08-31T06:07:17;14.00;99.90
21811;DHT22;11067;48.788;9.208;2023-08-31T06:09:43;14.00;99.90
21811;DHT22;11067;48.788;9.208;2023-08-31T06:12:08;14.00;99.90
21811;DHT22;11067;48.788;9.208;2023-08-31T06:14:34;14.10;99.90
21811;DHT22;11067;48.788;9.208;2023-08-31T06:17:00;14.20;99.90
21811;DHT22;11067;48.788;9.208;2023-08-31T06:19:26;14.20;99.90
21811;DHT22;11067;48.788;9.208;2023-08-31T06:21:51;14.30;99.90
21811;DHT22;11067;48.788;9.208;2023-08-31T06:24:17;14.40;99.90
21811;DHT22;11067;48.788;9.208;2023-08-31T06:26:42;14.40;99.90
21811;DHT22;11067;48.788;9.208;2023-08-31T06:29:08;14.50;99.90
21811;DHT22;11067;48.788;9.208;2023-08-31T06:31:36;14.70;99.90
21811;DHT22;11067;48.788;9.208;2023-08-31T06:34:01;14.80;99.90
21811;DHT22;11067;48.788;9.208;2023-08-31T06:36:27;14.70;99.90
21811;DHT22;11067;48.788;9.208;2023-08-31T06:38:53;14.50;99.90
21811;DHT22;11067;48.788;9.208;2023-08-31T06:41:18;14.50;99.90
21811;DHT22;11067;48.788;9.208;2023-08-31T06:43:44;14.60;99.90
21811;DHT22;11067;48.788;9.208;2023-08-31T06:46:11;14.70;99.90
21811;DHT22;11067;48.788;9.208;2023-08-31T06:48:36;14.70;99.90
21811;DHT22;11067;48.788;9.208;2023-08-31T06:51:02;14.70;99.90
21811;DHT22;11067;48.788;9.208;2023-08-31T06:53:29;14.80;99.90
21811;DHT22;11067;48.788;9.208;2023-08-31T06:55:56;14.90;99.90
21811;DHT22;11067;48.788;9.208;2023-08-31T06:58:22;15.20;99.90
21811;DHT22;11067;48.788;9.208;2023-08-31T07:00:47;15.30;99.90
21811;DHT22;11067;48.788;9.208;2023-08-31T07:03:13;15.70;99.90
21811;DHT22;11067;48.788;9.208;2023-08-31T07:05:42;16.00;99.90
21811;DHT22;11067;48.788;9.208;2023-08-31T07:08:07;16.30;99.90
21811;DHT22;11067;48.788;9.208;2023-08-31T07:10:34;16.30;99.90
21811;DHT22;11067;48.788;9.208;2023-08-31T07:13:02;16.40;99.90
21811;DHT22;11067;48.788;9.208;2023-08-31T07:15:27;16.60;99.90
21811;DHT22;11067;48.788;9.208;2023-08-31T07:17:53;16.70;99.90
21811;DHT22;11067;48.788;9.208;2023-08-31T07:20:19;16.80;99.90
21811;DHT22;11067;48.788;9.208;2023-08-31T07:22:44;16.80;99.90
21811;DHT22;11067;48.788;9.208;2023-08-31T07:25:10;16.70;99.90
21811;DHT22;11067;48.788;9.208;2023-08-31T07:27:35;16.90;99.90
21811;DHT22;11067;48.788;9.208;2023-08-31T07:30:01;17.00;99.90
21811;DHT22;11067;48.788;9.208;2023-08-31T07:32:28;16.80;99.90
21811;DHT22;11067;48.788;9.208;2023-08-31T07:34:53;16.70;99.90
21811;DHT22;11067;48.788;9.208;2023-08-31T07:37:19;16.70;99.90
21811;DHT22;11067;48.788;9.208;2023-08-31T07:39:44;16.40;99.90
21811;DHT22;11067;48.788;9.208;2023-08-31T07:42:11;16.30;99.90
21811;DHT22;11067;48.788;9.208;2023-08-31T07:44:36;16.40;99.90
21811;DHT22;11067;48.788;9.208;2023-08-31T07:47:02;16.60;99.90
21811;DHT22;11067;48.788;9.208;2023-08-31T07:49:28;16.80;99.90
21811;DHT22;11067;48.788;9.208;2023-08-31T07:51:53;17.00;99.90
21811;DHT22;11067;48.788;9.208;2023-08-31T07:54:20;17.20;99.90
21811;DHT22;11067;48.788;9.208;2023-08-31T07:56:46;17.20;99.90
21811;DHT22;11067;48.788;9.208;2023-08-31T07:59:12;17.50;99.90
21811;DHT22;11067;48.788;9.208;2023-08-31T08:01:37;17.50;99.90
21811;DHT22;11067;48.788;9.208;2023-08-31T08:04:03;17.50;99.90
21811;DHT22;11067;48.788;9.208;2023-08-31T08:06:28;17.80;99.90
21811;DHT22;11067;48.788;9.208;2023-08-31T08:08:54;17.80;99.90
21811;DHT22;11067;48.788;9.208;2023-08-31T08:11:19;17.80;99.90
21811;DHT22;11067;48.788;9.208;2023-08-31T08:13:45;18.10;99.90
21811;DHT22;11067;48.788;9.208;2023-08-31T08:16:10;18.20;99.90
21811;DHT22;11067;48.788;9.208;2023-08-31T08:18:36;18.40;99.90
21811;DHT22;11067;48.788;9.208;2023-08-31T08:21:01;18.40;99.90
21811;DHT22;11067;48.788;9.208;2023-08-31T08:23:27;18.40;99.90
21811;DHT22;11067;48.788;9.208;2023-08-31T08:25:52;18.70;99.90
21811;DHT22;11067;48.788;9.208;2023-08-31T08:28:18;18.40;99.90
21811;DHT22;11067;48.788;9.208;2023-08-31T08:30:43;18.40;99.90
21811;DHT22;11067;48.788;9.208;2023-08-31T08:33:09;18.40;99.90
21811;DHT22;11067;48.788;9.208;2023-08-31T08:35:37;18.70;99.90
21811;DHT22;11067;48.788;9.208;2023-08-31T08:38:03;18.60;99.90
21811;DHT22;11067;48.788;9.208;2023-08-31T08:40:31;18.50;99.90
21811;DHT22;11067;48.788;9.208;2023-08-31T08:43:00;18.40;99.90
21811;DHT22;11067;48.788;9.208;2023-08-31T08:45:30;18.50;99.90
21811;DHT22;11067;48.788;9.208;2023-08-31T08:47:57;18.70;99.90
21811;DHT22;11067;48.788;9.208;2023-08-31T08:50:23;18.90;99.90
21811;DHT22;11067;48.788;9.208;2023-08-31T08:52:49;18.80;99.90
21811;DHT22;11067;48.788;9.208;2023-08-31T08:55:15;18.80;99.90
21811;DHT22;11067;48.788;9.208;2023-08-31T08:57:41;18.80;99.90
21811;DHT22;11067;48.788;9.208;2023-08-31T09:00:07;18.80;99.90
21811;DHT22;11067;48.788;9.208;2023-08-31T09:02:33;18.80;99.90
21811;DHT22;11067;48.788;9.208;2023-08-31T09:04:59;18.60;99.90
21811;DHT22;11067;48.788;9.208;2023-08-31T09:07:24;18.80;99.90
21811;DHT22;11067;48.788;9.208;2023-08-31T09:09:52;19.10;99.90
21811;DHT22;11067;48.788;9.208;2023-08-31T09:12:18;19.40;99.90
21811;DHT22;11067;48.788;9.208;2023-08-31T09:15:05;19.40;99.90
21811;DHT22;11067;48.788;9.208;2023-08-31T09:17:40;19.50;99.90
21811;DHT22;11067;48.788;9.208;2023-08-31T09:20:07;19.60;99.90
21811;DHT22;11067;48.788;9.208;2023-08-31T09:22:34;19.70;99.90
21811;DHT22;11067;48.788;9.208;2023-08-31T09:25:00;19.20;99.90
21811;DHT22;11067;48.788;9.208;2023-08-31T09:27:26;18.80;99.90
21811;DHT22;11067;48.788;9.208;2023-08-31T09:29:54;18.80;99.90
21811;DHT22;11067;48.788;9.208;2023-08-31T09:32:20;18.80;99.90
21811;DHT22;11067;48.788;9.208;2023-08-31T09:34:47;19.00;99.90
21811;DHT22;11067;48.788;9.208;2023-08-31T09:37:15;19.30;99.90
21811;DHT22;11067;48.788;9.208;2023-08-31T09:39:42;19.30;99.90
21811;DHT22;11067;48.788;9.208;2023-08-31T09:42:08;19.10;99.90
21811;DHT22;11067;48.788;9.208;2023-08-31T09:44:34;18.90;99.90
21811;DHT22;11067;48.788;9.208;2023-08-31T09:46:59;18.70;99.90
21811;DHT22;11067;48.788;9.208;2023-08-31T09:49:26;19.10;99.90
21811;DHT22;11067;48.788;9.208;2023-08-31T09:51:52;19.10;99.90
21811;DHT22;11067;48.788;9.208;2023-08-31T09:54:19;19.50;99.90
21811;DHT22;11067;48.788;9.208;2023-08-31T09:56:46;19.70;99.50
21811;DHT22;11067;48.788;9.208;2023-08-31T09:59:14;19.50;99.50
21811;DHT22;11067;48.788;9.208;2023-08-31T10:01:45;19.50;98.10
21811;DHT22;11067;48.788;9.208;2023-08-31T10:04:11;19.40;96.30
21811;DHT22;11067;48.788;9.208;2023-08-31T10:06:41;19.30;96.20
21811;DHT22;11067;48.788;9.208;2023-08-31T10:09:08;19.20;97.20
21811;DHT22;11067;48.788;9.208;2023-08-31T10:11:35;19.30;95.90
21811;DHT22;11067;48.788;9.208;2023-08-31T10:14:03;19.40;97.00
21811;DHT22;11067;48.788;9.208;2023-08-31T10:16:30;19.70;95.40
21811;DHT22;11067;48.788;9.208;2023-08-31T10:18:56;19.70;96.10
21811;DHT22;11067;48.788;9.208;2023-08-31T10:21:22;19.60;94.40
21811;DHT22;11067;48.788;9.208;2023-08-31T10:23:48;19.90;94.50
21811;DHT22;11067;48.788;9.208;2023-08-31T10:26:32;20.20;93.50
21811;DHT22;11067;48.788;9.208;2023-08-31T10:28:58;20.10;93.10
21811;DHT22;11067;48.788;9.208;2023-08-31T10:31:29;20.10;92.50
21811;DHT22;11067;48.788;9.208;2023-08-31T10:33:56;20.00;93.30
21811;DHT22;11067;48.788;9.208;2023-08-31T10:36:38;19.70;94.40
21811;DHT22;11067;48.788;9.208;2023-08-31T10:39:17;19.80;95.10
21811;DHT22;11067;48.788;9.208;2023-08-31T10:41:54;19.50;95.90
21811;DHT22;11067;48.788;9.208;2023-08-31T10:44:24;19.40;96.90
21811;DHT22;11067;48.788;9.208;2023-08-31T10:46:51;19.40;96.20
21811;DHT22;11067;48.788;9.208;2023-08-31T10:49:19;19.30;96.50
21811;DHT22;11067;48.788;9.208;2023-08-31T10:51:55;19.30;97.50
21811;DHT22;11067;48.788;9.208;2023-08-31T10:54:24;19.60;96.70
21811;DHT22;11067;48.788;9.208;2023-08-31T10:56:54;19.80;96.30
21811;DHT22;11067;48.788;9.208;2023-08-31T10:59:24;19.90;95.30
21811;DHT22;11067;48.788;9.208;2023-08-31T11:01:57;19.90;94.80
21811;DHT22;11067;48.788;9.208;2023-08-31T11:04:27;19.90;93.20
21811;DHT22;11067;48.788;9.208;2023-08-31T11:07:15;19.90;94.30
21811;DHT22;11067;48.788;9.208;2023-08-31T11:09:41;20.00;93.80
21811;DHT22;11067;48.788;9.208;2023-08-31T11:12:07;20.10;94.30
21811;DHT22;11067;48.788;9.208;2023-08-31T11:14:33;19.90;94.30
21811;DHT22;11067;48.788;9.208;2023-08-31T11:16:59;19.90;95.70
21811;DHT22;11067;48.788;9.208;2023-08-31T11:19:26;19.90;96.20
21811;DHT22;11067;48.788;9.208;2023-08-31T11:21:53;19.80;96.00
21811;DHT22;11067;48.788;9.208;2023-08-31T11:24:19;19.80;96.10
21811;DHT22;11067;48.788;9.208;2023-08-31T11:26:49;19.70;97.20
21811;DHT22;11067;48.788;9.208;2023-08-31T11:29:15;20.00;97.70
21811;DHT22;11067;48.788;9.208;2023-08-31T11:31:40;19.50;97.10
21811;DHT22;11067;48.788;9.208;2023-08-31T11:34:07;20.00;97.60
21811;DHT22;11067;48.788;9.208;2023-08-31T11:36:37;20.40;96.00
21811;DHT22;11067;48.788;9.208;2023-08-31T11:39:03;20.20;96.80
21811;DHT22;11067;48.788;9.208;2023-08-31T11:41:35;20.30;96.20
21811;DHT22;11067;48.788;9.208;2023-08-31T11:44:05;20.40;95.40
21811;DHT22;11067;48.788;9.208;2023-08-31T11:46:31;20.60;95.30
21811;DHT22;11067;48.788;9.208;2023-08-31T11:48:59;20.20;94.50
21811;DHT22;11067;48.788;9.208;2023-08-31T11:51:25;20.50;95.20
21811;DHT22;11067;48.788;9.208;2023-08-31T11:53:50;20.40;95.10
21811;DHT22;11067;48.788;9.208;2023-08-31T11:56:16;20.20;96.00
21811;DHT22;11067;48.788;9.208;2023-08-31T11:58:42;20.20;95.80
21811;DHT22;11067;48.788;9.208;2023-08-31T12:01:08;20.40;96.00
21811;DHT22;11067;48.788;9.208;2023-08-31T12:03:43;20.90;96.40
21811;DHT22;11067;48.788;9.208;2023-08-31T12:06:17;20.50;95.90
21811;DHT22;11067;48.788;9.208;2023-08-31T12:08:47;20.40;96.80
21811;DHT22;11067;48.788;9.208;2023-08-31T12:11:14;20.40;96.30
21811;DHT22;11067;48.788;9.208;2023-08-31T12:13:40;20.30;95.20
21811;DHT22;11067;48.788;9.208;2023-08-31T12:16:11;20.20;96.40
21811;DHT22;11067;48.788;9.208;2023-08-31T12:18:37;20.20;96.70
21811;DHT22;11067;48.788;9.208;2023-08-31T12:21:03;20.10;96.90
21811;DHT22;11067;48.788;9.208;2023-08-31T12:23:30;20.10;96.60
21811;DHT22;11067;48.788;9.208;2023-08-31T12:25:55;20.40;97.10
21811;DHT22;11067;48.788;9.208;2023-08-31T12:28:22;20.60;96.40
21811;DHT22;11067;48.788;9.208;2023-08-31T12:30:49;20.90;94.60
21811;DHT22;11067;48.788;9.208;2023-08-31T12:33:19;20.80;94.40
21811;DHT22;11067;48.788;9.208;2023-08-31T12:35:45;20.70;94.70
21811;DHT22;11067;48.788;9.208;2023-08-31T12:38:11;20.80;94.50
21811;DHT22;11067;48.788;9.208;2023-08-31T12:40:37;20.40;96.10
21811;DHT22;11067;48.788;9.208;2023-08-31T12:43:04;20.50;95.10
21811;DHT22;11067;48.788;9.208;2023-08-31T12:45:30;20.80;95.50
21811;DHT22;11067;48.788;9.208;2023-08-31T12:47:55;20.90;94.20
21811;DHT22;11067;48.788;9.208;2023-08-31T12:50:21;20.80;93.90
21811;DHT22;11067;48.788;9.208;2023-08-31T12:52:46;20.90;93.60
21811;DHT22;11067;48.788;9.208;2023-08-31T12:55:16;21.00;94.00
21811;DHT22;11067;48.788;9.208;2023-08-31T12:57:42;21.00;93.70
21811;DHT22;11067;48.788;9.208;2023-08-31T13:00:08;20.90;93.40
21811;DHT22;11067;48.788;9.208;2023-08-31T13:02:38;20.80;93.30
21811;DHT22;11067;48.788;9.208;2023-08-31T13:05:04;20.50;93.80
21811;DHT22;11067;48.788;9.208;2023-08-31T13:07:31;20.70;94.60
21811;DHT22;11067;48.788;9.208;2023-08-31T13:09:59;20.60;95.20
21811;DHT22;11067;48.788;9.208;2023-08-31T13:12:25;20.60;94.90
21811;DHT22;11067;48.788;9.208;2023-08-31T13:14:50;20.50;95.50
21811;DHT22;11067;48.788;9.208;2023-08-31T13:17:16;20.40;95.70
21811;DHT22;11067;48.788;9.208;2023-08-31T13:19:41;20.50;95.70
21811;DHT22;11067;48.788;9.208;2023-08-31T13:22:07;20.60;95.90
21811;DHT22;11067;48.788;9.208;2023-08-31T13:24:32;20.70;95.60
21811;DHT22;11067;48.788;9.208;2023-08-31T13:26:58;20.70;96.50
21811;DHT22;11067;48.788;9.208;2023-08-31T13:29:23;20.60;96.30
21811;DHT22;11067;48.788;9.208;2023-08-31T13:31:49;20.70;95.90
21811;DHT22;11067;48.788;9.208;2023-08-31T13:34:14;21.00;95.50
21811;DHT22;11067;48.788;9.208;2023-08-31T13:36:41;21.00;95.00
21811;DHT22;11067;48.788;9.208;2023-08-31T13:39:07;21.30;94.90
21811;DHT22;11067;48.788;9.208;2023-08-31T13:41:33;21.50;93.90
21811;DHT22;11067;48.788;9.208;2023-08-31T13:43:58;21.10;95.10
21811;DHT22;11067;48.788;9.208;2023-08-31T13:46:24;20.90;93.30
21811;DHT22;11067;48.788;9.208;2023-08-31T13:48:49;21.10;94.50
21811;DHT22;11067;48.788;9.208;2023-08-31T13:51:15;21.20;94.20
21811;DHT22;11067;48.788;9.208;2023-08-31T13:53:41;21.00;94.80
21811;DHT22;11067;48.788;9.208;2023-08-31T13:56:06;20.70;94.80
21811;DHT22;11067;48.788;9.208;2023-08-31T13:58:32;20.60;95.60
21811;DHT22;11067;48.788;9.208;2023-08-31T14:01:00;20.90;96.50
21811;DHT22;11067;48.788;9.208;2023-08-31T14:03:26;21.10;95.30
21811;DHT22;11067;48.788;9.208;2023-08-31T14:05:52;21.20;95.10
21811;DHT22;11067;48.788;9.208;2023-08-31T14:08:18;20.90;95.00
21811;DHT22;11067;48.788;9.208;2023-08-31T14:10:43;20.90;96.10
21811;DHT22;11067;48.788;9.208;2023-08-31T14:13:09;20.80;96.00
21811;DHT22;11067;48.788;9.208;2023-08-31T14:15:34;20.80;95.50
21811;DHT22;11067;48.788;9.208;2023-08-31T14:18:00;20.60;95.60
21811;DHT22;11067;48.788;9.208;2023-08-31T14:20:25;20.50;96.70
21811;DHT22;11067;48.788;9.208;2023-08-31T14:22:51;20.30;97.40
21811;DHT22;11067;48.788;9.208;2023-08-31T14:25:17;20.10;98.00
21811;DHT22;11067;48.788;9.208;2023-08-31T14:27:42;20.00;98.70
21811;DHT22;11067;48.788;9.208;2023-08-31T14:30:08;19.90;99.00
21811;DHT22;11067;48.788;9.208;2023-08-31T14:32:34;20.10;99.50
21811;DHT22;11067;48.788;9.208;2023-08-31T14:35:00;20.20;99.30
21811;DHT22;11067;48.788;9.208;2023-08-31T14:37:26;20.10;99.60
21811;DHT22;11067;48.788;9.208;2023-08-31T14:39:51;20.10;99.90
21811;DHT22;11067;48.788;9.208;2023-08-31T14:42:17;20.00;99.90
21811;DHT22;11067;48.788;9.208;2023-08-31T14:44:46;19.90;99.90
21811;DHT22;11067;48.788;9.208;2023-08-31T14:47:12;19.90;99.90
21811;DHT22;11067;48.788;9.208;2023-08-31T14:49:39;19.90;99.90
21811;DHT22;11067;48.788;9.208;2023-08-31T14:52:05;19.90;99.90
21811;DHT22;11067;48.788;9.208;2023-08-31T14:54:32;20.00;99.90
21811;DHT22;11067;48.788;9.208;2023-08-31T14:56:58;19.90;99.90
21811;DHT22;11067;48.788;9.208;2023-08-31T14:59:24;19.80;99.90
21811;DHT22;11067;48.788;9.208;2023-08-31T15:01:49;19.90;99.90
21811;DHT22;11067;48.788;9.208;2023-08-31T15:04:33;19.70;99.90
21811;DHT22;11067;48.788;9.208;2023-08-31T15:06:59;19.90;99.90
21811;DHT22;11067;48.788;9.208;2023-08-31T15:09:25;19.90;99.90
21811;DHT22;11067;48.788;9.208;2023-08-31T15:11:51;19.80;99.90
21811;DHT22;11067;48.788;9.208;2023-08-31T15:14:16;19.80;99.90
21811;DHT22;11067;48.788;9.208;2023-08-31T15:16:42;19.70;99.90
21811;DHT22;11067;48.788;9.208;2023-08-31T15:19:08;19.70;99.90
21811;DHT22;11067;48.788;9.208;2023-08-31T15:21:34;19.70;99.90
21811;DHT22;11067;48.788;9.208;2023-08-31T15:24:00;19.70;99.90
21811;DHT22;11067;48.788;9.208;2023-08-31T15:26:25;19.60;99.90
21811;DHT22;11067;48.788;9.208;2023-08-31T15:28:51;19.60;99.90